createdAt,value
2023-04-24T00:00:57.732Z,3.40
2023-04-24T00:06:00.290Z,0.47
2023-04-24T00:11:04.541Z,1.90
2023-04-24T00:16:07.206Z,1.43
2023-04-24T00:21:09.603Z,1.57
2023-04-24T00:26:12.934Z,0.70
2023-04-24T00:31:15.325Z,1.40
2023-04-24T00:36:17.518Z,0.87
2023-04-24T00:41:22.098Z,0.50
2023-04-24T00:46:24.188Z,2.03
2023-04-24T00:51:26.757Z,1.40
2023-04-24T00:56:30.699Z,1.20
2023-04-24T01:01:33.935Z,2.53
2023-04-24T01:06:36.812Z,1.07
2023-04-24T01:11:40.672Z,1.10
2023-04-24T01:16:43.106Z,0.57
2023-04-24T01:21:46.829Z,0.40
2023-04-24T01:26:50.619Z,0.60
2023-04-24T01:31:53.398Z,1.57
2023-04-24T01:36:55.855Z,2.73
2023-04-24T01:41:59.358Z,0.70
2023-04-24T01:47:03.897Z,0.60
2023-04-24T01:52:05.867Z,2.17
2023-04-24T01:57:09.662Z,2.70
2023-04-24T02:02:11.636Z,0.53
2023-04-24T02:07:13.819Z,0.23
2023-04-24T02:12:18.517Z,2.10
2023-04-24T02:17:21.044Z,0.20
2023-04-24T02:22:23.060Z,2.20
2023-04-24T02:27:26.521Z,1.30
2023-04-24T02:32:28.563Z,1.70
2023-04-24T02:37:30.801Z,1.63
2023-04-24T02:42:34.205Z,0.60
2023-04-24T02:47:36.484Z,1.27
2023-04-24T02:52:38.545Z,2.00
2023-04-24T02:57:41.795Z,1.47
2023-04-24T03:02:43.912Z,0.37
2023-04-24T03:07:46.713Z,2.40
2023-04-24T03:12:50.822Z,2.23
2023-04-24T03:17:55.399Z,1.20
2023-04-24T03:22:58.746Z,0.80
2023-04-24T03:28:02.192Z,0.80
2023-04-24T03:33:04.128Z,0.87
2023-04-24T03:38:06.621Z,2.67
2023-04-24T03:43:10.298Z,1.10
2023-04-24T03:48:12.464Z,2.10
2023-04-24T03:53:14.731Z,0.73
2023-04-24T03:58:19.070Z,0.73
2023-04-24T04:03:21.275Z,0.97
2023-04-24T04:08:23.747Z,0.57
2023-04-24T04:13:27.187Z,1.80
2023-04-24T04:18:29.186Z,1.17
2023-04-24T04:23:31.428Z,1.20
2023-04-24T04:28:36.221Z,1.83
2023-04-24T04:33:39.482Z,1.43
2023-04-24T04:38:42.935Z,3.37
2023-04-24T04:43:47.726Z,1.90
2023-04-24T04:48:49.909Z,0.90
2023-04-24T04:53:52.235Z,1.57
2023-04-24T04:58:56.224Z,2.40
2023-04-24T05:03:58.609Z,0.67
2023-04-24T05:09:00.558Z,3.00
2023-04-24T05:14:04.329Z,3.47
2023-04-24T05:19:06.653Z,1.80
2023-04-24T05:24:08.944Z,1.43
2023-04-24T05:29:13.071Z,2.63
2023-04-24T05:34:15.554Z,3.60
2023-04-24T05:39:17.710Z,1.53
2023-04-24T05:44:20.988Z,2.47
2023-04-24T05:49:23.242Z,1.53
2023-04-24T05:54:25.524Z,3.13
2023-04-24T05:59:28.874Z,1.13
2023-04-24T06:04:31.174Z,2.97
2023-04-24T06:09:33.199Z,3.17
2023-04-24T06:14:36.651Z,2.30
2023-04-24T06:19:39.097Z,3.87
2023-04-24T06:24:42.823Z,1.93
2023-04-24T06:29:46.582Z,2.67
2023-04-24T06:34:48.743Z,3.10
2023-04-24T06:39:51.085Z,3.10
2023-04-24T06:44:54.658Z,3.17
2023-04-24T06:49:56.743Z,4.70
2023-04-24T06:55:03.526Z,3.10
2023-04-24T07:00:10.590Z,1.67
2023-04-24T07:05:13.933Z,0.53
2023-04-24T07:10:16.068Z,0.37
2023-04-24T07:15:19.638Z,0.93
2023-04-24T07:20:22.130Z,0.10
2023-04-24T07:25:25.331Z,1.00
2023-04-24T07:30:30.185Z,0.77
2023-04-24T07:35:32.858Z,0.80
2023-04-24T07:40:35.106Z,3.03
2023-04-24T07:45:40.741Z,0.67
2023-04-24T07:50:42.716Z,1.03
2023-04-24T07:55:44.685Z,0.60
2023-04-24T08:00:48.053Z,0.90
2023-04-24T08:05:52.232Z,1.50
2023-04-24T08:10:54.690Z,0.60
2023-04-24T08:15:59.379Z,1.27
2023-04-24T08:21:02.794Z,0.83
2023-04-24T08:26:05.644Z,0.77
2023-04-24T08:31:09.744Z,1.00
2023-04-24T08:36:12.485Z,2.73
2023-04-24T08:41:16.725Z,0.60
2023-04-24T08:46:21.915Z,1.40
2023-04-24T08:51:25.031Z,0.73
2023-04-24T08:56:28.175Z,0.73
2023-04-24T09:01:34.434Z,0.60
2023-04-24T09:06:37.393Z,1.13
2023-04-24T09:11:39.927Z,2.33
2023-04-24T09:16:44.910Z,1.43
2023-04-24T09:21:48.979Z,2.50
2023-04-24T09:26:58.362Z,1.43
2023-04-24T09:32:02.142Z,1.43
2023-04-24T09:37:04.382Z,1.00
2023-04-24T09:42:06.571Z,0.43
2023-04-24T09:47:11.960Z,0.87
2023-04-24T09:52:14.381Z,1.33
2023-04-24T09:57:17.611Z,0.77
2023-04-24T10:02:22.376Z,0.50
2023-04-24T10:07:24.948Z,0.90
2023-04-24T10:12:27.566Z,0.90
2023-04-24T10:17:31.657Z,0.70
2023-04-24T10:22:35.208Z,2.33
2023-04-24T10:27:38.556Z,1.90
2023-04-24T10:32:42.044Z,0.90
2023-04-24T10:37:47.270Z,3.60
2023-04-24T10:42:57.459Z,3.23
2023-04-24T10:48:05.998Z,1.70
2023-04-24T10:53:10.516Z,1.10
2023-04-24T10:58:13.336Z,0.83
2023-04-24T11:03:30.634Z,1.07
2023-04-24T11:08:34.906Z,1.03
2023-04-24T11:14:09.183Z,5.93
2023-04-24T11:19:21.562Z,3.10
2023-04-24T11:24:43.037Z,2.43
2023-04-24T11:29:51.537Z,3.53
2023-04-24T11:34:56.786Z,1.67
2023-04-24T11:40:00.655Z,2.13
2023-04-24T11:45:03.550Z,1.40
2023-04-24T11:50:10.839Z,1.70
2023-04-24T11:55:27.378Z,3.43
2023-04-24T12:00:34.878Z,1.87
2023-04-24T12:05:41.345Z,1.63
2023-04-24T12:10:43.704Z,2.77
2023-04-24T12:15:46.036Z,1.83
2023-04-24T12:20:50.058Z,3.23
2023-04-24T12:25:54.639Z,3.77
2023-04-24T12:30:56.980Z,4.93
2023-04-24T12:36:00.869Z,3.20
2023-04-24T12:41:07.840Z,6.60
2023-04-24T12:46:10.119Z,3.00
2023-04-24T12:51:13.799Z,9.00
2023-04-24T12:56:15.881Z,3.40
2023-04-24T13:01:17.943Z,1.60
2023-04-24T13:06:22.187Z,1.63
2023-04-24T13:11:24.858Z,1.93
2023-04-24T13:16:27.161Z,1.67
2023-04-24T13:21:32.283Z,7.23
2023-04-24T13:26:34.544Z,2.40
2023-04-24T13:31:36.899Z,1.73
2023-04-24T13:36:40.812Z,3.17
2023-04-24T13:41:43.186Z,1.70
2023-04-24T13:46:46.204Z,2.97
2023-04-24T13:51:49.833Z,3.33
2023-04-24T13:56:52.303Z,2.57
2023-04-24T14:01:54.645Z,3.33
2023-04-24T14:06:58.013Z,3.60
2023-04-24T14:12:00.180Z,2.70
2023-04-24T14:17:02.109Z,1.93
2023-04-24T14:22:05.568Z,1.60
2023-04-24T14:27:07.557Z,2.70
2023-04-24T14:32:10.232Z,1.93
2023-04-24T14:37:13.849Z,1.60
2023-04-24T14:42:18.070Z,2.30
2023-04-24T14:47:22.340Z,2.57
2023-04-24T14:52:25.630Z,1.93
2023-04-24T14:57:27.489Z,1.60
2023-04-24T15:02:29.938Z,2.63
2023-04-24T15:07:34.223Z,1.10
2023-04-24T15:12:36.564Z,2.15
2023-04-24T15:17:38.712Z,1.27
2023-04-24T15:22:42.228Z,1.90
2023-04-24T15:27:45.580Z,0.90
2023-04-24T15:32:47.997Z,5.65
2023-04-24T15:37:51.637Z,5.97
2023-04-24T15:42:53.664Z,2.93
2023-04-24T15:47:55.806Z,3.63
2023-04-24T15:52:59.585Z,2.20
2023-04-24T15:58:02.628Z,3.53
2023-04-24T16:03:08.382Z,4.67
2023-04-24T16:08:14.359Z,4.27
2023-04-24T16:13:18.782Z,2.80
2023-04-24T16:18:21.176Z,1.70
2023-04-24T16:23:24.568Z,1.77
2023-04-24T16:28:27.807Z,1.83
2023-04-24T16:33:32.002Z,1.80
2023-04-24T16:38:35.322Z,2.92
2023-04-24T16:43:37.605Z,1.73
2023-04-24T16:48:39.891Z,3.10
2023-04-24T16:53:43.431Z,1.13
2023-04-24T16:58:45.959Z,2.65
2023-04-24T17:03:48.940Z,1.98
2023-04-24T17:08:53.420Z,2.47
2023-04-24T17:13:56.578Z,2.20
2023-04-24T17:19:00.373Z,1.50
2023-04-24T17:24:04.714Z,1.53
2023-04-24T17:29:07.418Z,2.23
2023-04-24T17:34:10.994Z,2.67
2023-04-24T17:39:15.243Z,3.17
2023-04-24T17:44:18.186Z,2.70
2023-04-24T17:49:23.622Z,5.40
2023-04-24T17:54:28.554Z,2.90
2023-04-24T17:59:31.553Z,4.67
2023-04-24T18:04:33.931Z,5.07
2023-04-24T18:09:38.620Z,3.07
2023-04-24T18:14:41.328Z,4.13
2023-04-24T18:19:44.305Z,4.03
2023-04-24T18:24:48.762Z,3.47
2023-04-24T18:29:52.574Z,2.07
2023-04-24T18:34:56.104Z,2.77
2023-04-24T18:40:01.558Z,3.60
2023-04-24T18:45:05.035Z,4.40
2023-04-24T18:50:08.568Z,4.03
2023-04-24T18:55:13.239Z,4.40
2023-04-24T19:00:18.306Z,2.63
2023-04-24T19:05:20.909Z,7.47
2023-04-24T19:10:28.980Z,6.10
2023-04-24T19:15:34.048Z,5.17
2023-04-24T19:20:38.219Z,6.33
2023-04-24T19:25:42.132Z,4.93
2023-04-24T19:30:45.513Z,3.67
2023-04-24T19:35:48.836Z,5.63
2023-04-24T19:40:53.544Z,18.10
2023-04-24T19:45:58.528Z,27.00
2023-04-24T19:51:01.305Z,5.53
2023-04-24T19:56:05.914Z,6.07
2023-04-24T20:01:08.568Z,5.90
2023-04-24T20:06:11.535Z,8.83
2023-04-24T20:11:16.247Z,6.43
2023-04-24T20:16:19.644Z,7.07
2023-04-24T20:21:22.035Z,7.03
2023-04-24T20:26:26.282Z,9.47
2023-04-24T20:31:28.764Z,7.17
2023-04-24T20:36:31.414Z,6.30
2023-04-24T20:41:36.206Z,6.37
2023-04-24T20:46:38.332Z,8.07
2023-04-24T20:51:40.553Z,4.97
2023-04-24T20:56:44.369Z,5.70
2023-04-24T21:01:48.839Z,6.57
2023-04-24T21:06:51.018Z,5.67
2023-04-24T21:11:54.252Z,6.67
2023-04-24T21:17:03.836Z,3.77
2023-04-24T21:22:50.078Z,4.37
2023-04-24T21:28:38.831Z,8.03
2023-04-24T21:33:40.908Z,5.70
2023-04-24T21:38:43.196Z,7.73
2023-04-24T21:43:47.880Z,6.80
2023-04-24T21:48:52.262Z,9.83
2023-04-24T21:53:55.091Z,7.77
2023-04-24T21:58:59.032Z,5.00
2023-04-24T22:04:03.340Z,7.20
2023-04-24T22:09:06.021Z,8.73
2023-04-24T22:14:11.211Z,6.07
2023-04-24T22:19:13.479Z,10.13
2023-04-24T22:24:16.012Z,8.57
2023-04-24T22:29:19.728Z,6.70
2023-04-24T22:34:21.958Z,8.60
2023-04-24T22:39:24.407Z,7.83
2023-04-24T22:44:28.128Z,6.57
2023-04-24T22:49:32.539Z,7.60
2023-04-24T22:54:35.024Z,7.97
2023-04-24T22:59:38.271Z,5.33
2023-04-24T23:04:40.756Z,8.67
2023-04-24T23:09:42.994Z,8.43
2023-04-24T23:14:46.506Z,7.07
2023-04-24T23:19:48.749Z,5.43
2023-04-24T23:24:51.658Z,9.43
2023-04-24T23:29:55.677Z,8.47
2023-04-24T23:34:58.087Z,7.20
2023-04-24T23:40:00.193Z,8.47
2023-04-24T23:45:03.487Z,7.13
2023-04-24T23:50:06.416Z,9.07
2023-04-24T23:55:09.822Z,7.27
